sensor_id;sensor_type;location;lat;lon;timestamp;temperature;humidity
51815;DHT22;37874;53.158;6.766;2023-06-10T00:00:13;27.30;51.70
51815;DHT22;37874;53.158;6.766;2023-06-10T00:02:41;27.30;51.60
51815;DHT22;37874;53.158;6.766;2023-06-10T00:05:07;27.30;51.50
51815;DHT22;37874;53.158;6.766;2023-06-10T00:07:34;27.30;51.30
51815;DHT22;37874;53.158;6.766;2023-06-10T00:10:04;27.30;51.20
51815;DHT22;37874;53.158;6.766;2023-06-10T00:12:31;27.30;51.10
51815;DHT22;37874;53.158;6.766;2023-06-10T00:15:03;27.30;50.90
51815;DHT22;37874;53.158;6.766;2023-06-10T00:17:30;27.30;50.80
51815;DHT22;37874;53.158;6.766;2023-06-10T00:19:56;27.30;50.70
51815;DHT22;37874;53.158;6.766;2023-06-10T00:22:23;27.40;50.60
51815;DHT22;37874;53.158;6.766;2023-06-10T00:24:49;27.30;50.40
51815;DHT22;37874;53.158;6.766;2023-06-10T00:27:16;27.30;50.30
51815;DHT22;37874;53.158;6.766;2023-06-10T00:29:42;27.30;50.20
51815;DHT22;37874;53.158;6.766;2023-06-10T00:32:08;27.30;50.70
51815;DHT22;37874;53.158;6.766;2023-06-10T00:34:33;27.30;50.00
51815;DHT22;37874;53.158;6.766;2023-06-10T00:36:59;27.30;49.90
51815;DHT22;37874;53.158;6.766;2023-06-10T00:39:24;27.30;49.80
51815;DHT22;37874;53.158;6.766;2023-06-10T00:41:50;27.30;49.80
51815;DHT22;37874;53.158;6.766;2023-06-10T00:44:16;27.30;49.70
51815;DHT22;37874;53.158;6.766;2023-06-10T00:46:42;27.30;49.60
51815;DHT22;37874;53.158;6.766;2023-06-10T00:49:08;27.40;49.60
51815;DHT22;37874;53.158;6.766;2023-06-10T00:51:34;27.30;49.40
51815;DHT22;37874;53.158;6.766;2023-06-10T00:54:02;27.30;49.40
51815;DHT22;37874;53.158;6.766;2023-06-10T00:56:28;27.30;49.30
51815;DHT22;37874;53.158;6.766;2023-06-10T00:58:54;27.30;49.20
51815;DHT22;37874;53.158;6.766;2023-06-10T01:01:20;27.30;49.20
51815;DHT22;37874;53.158;6.766;2023-06-10T01:03:45;27.30;49.10
51815;DHT22;37874;53.158;6.766;2023-06-10T01:06:24;27.30;49.00
51815;DHT22;37874;53.158;6.766;2023-06-10T01:08:58;27.30;48.90
51815;DHT22;37874;53.158;6.766;2023-06-10T01:11:35;27.30;48.90
51815;DHT22;37874;53.158;6.766;2023-06-10T01:14:03;27.30;48.80
51815;DHT22;37874;53.158;6.766;2023-06-10T01:16:30;27.30;49.40
51815;DHT22;37874;53.158;6.766;2023-06-10T01:18:56;27.30;48.80
51815;DHT22;37874;53.158;6.766;2023-06-10T01:21:23;27.30;48.70
51815;DHT22;37874;53.158;6.766;2023-06-10T01:23:50;27.30;48.60
51815;DHT22;37874;53.158;6.766;2023-06-10T01:26:16;27.30;48.60
51815;DHT22;37874;53.158;6.766;2023-06-10T01:28:51;27.30;48.50
51815;DHT22;37874;53.158;6.766;2023-06-10T01:31:41;27.30;48.50
51815;DHT22;37874;53.158;6.766;2023-06-10T01:34:11;27.20;48.40
51815;DHT22;37874;53.158;6.766;2023-06-10T01:36:38;27.20;48.40
51815;DHT22;37874;53.158;6.766;2023-06-10T01:39:05;27.30;48.40
51815;DHT22;37874;53.158;6.766;2023-06-10T01:41:34;27.30;48.40
51815;DHT22;37874;53.158;6.766;2023-06-10T01:44:00;27.30;48.30
51815;DHT22;37874;53.158;6.766;2023-06-10T01:46:26;27.20;48.30
51815;DHT22;37874;53.158;6.766;2023-06-10T01:48:51;27.30;48.30
51815;DHT22;37874;53.158;6.766;2023-06-10T01:51:17;27.20;48.20
51815;DHT22;37874;53.158;6.766;2023-06-10T01:53:43;27.20;48.10
51815;DHT22;37874;53.158;6.766;2023-06-10T01:56:09;27.20;48.00
51815;DHT22;37874;53.158;6.766;2023-06-10T01:58:35;27.20;48.00
51815;DHT22;37874;53.158;6.766;2023-06-10T02:01:00;27.20;48.00
51815;DHT22;37874;53.158;6.766;2023-06-10T02:03:26;27.20;48.00
51815;DHT22;37874;53.158;6.766;2023-06-10T02:05:52;27.20;47.90
51815;DHT22;37874;53.158;6.766;2023-06-10T02:08:18;27.20;47.90
51815;DHT22;37874;53.158;6.766;2023-06-10T02:10:43;27.20;47.90
51815;DHT22;37874;53.158;6.766;2023-06-10T02:13:09;27.20;47.90
51815;DHT22;37874;53.158;6.766;2023-06-10T02:15:35;27.20;47.80
51815;DHT22;37874;53.158;6.766;2023-06-10T02:18:00;27.20;47.80
51815;DHT22;37874;53.158;6.766;2023-06-10T02:20:26;27.20;47.70
51815;DHT22;37874;53.158;6.766;2023-06-10T02:22:52;27.20;47.70
51815;DHT22;37874;53.158;6.766;2023-06-10T02:25:17;27.20;47.70
51815;DHT22;37874;53.158;6.766;2023-06-10T02:27:43;27.20;47.60
51815;DHT22;37874;53.158;6.766;2023-06-10T02:30:09;27.20;47.60
51815;DHT22;37874;53.158;6.766;2023-06-10T02:32:35;27.20;47.60
51815;DHT22;37874;53.158;6.766;2023-06-10T02:35:01;27.20;47.60
51815;DHT22;37874;53.158;6.766;2023-06-10T02:37:27;27.20;47.60
51815;DHT22;37874;53.158;6.766;2023-06-10T02:39:52;27.10;47.50
51815;DHT22;37874;53.158;6.766;2023-06-10T02:42:18;27.10;47.40
51815;DHT22;37874;53.158;6.766;2023-06-10T02:44:44;27.20;47.50
51815;DHT22;37874;53.158;6.766;2023-06-10T02:47:10;27.10;47.40
51815;DHT22;37874;53.158;6.766;2023-06-10T02:49:35;27.10;47.40
51815;DHT22;37874;53.158;6.766;2023-06-10T02:52:01;27.10;47.30
51815;DHT22;37874;53.158;6.766;2023-06-10T02:54:27;27.10;47.30
51815;DHT22;37874;53.158;6.766;2023-06-10T02:56:53;27.10;47.30
51815;DHT22;37874;53.158;6.766;2023-06-10T02:59:21;27.10;47.30
51815;DHT22;37874;53.158;6.766;2023-06-10T03:01:47;27.10;47.30
51815;DHT22;37874;53.158;6.766;2023-06-10T03:04:12;27.10;47.30
51815;DHT22;37874;53.158;6.766;2023-06-10T03:06:40;27.10;47.30
51815;DHT22;37874;53.158;6.766;2023-06-10T03:09:06;27.10;47.20
51815;DHT22;37874;53.158;6.766;2023-06-10T03:11:35;27.10;47.30
51815;DHT22;37874;53.158;6.766;2023-06-10T03:14:01;27.00;47.10
51815;DHT22;37874;53.158;6.766;2023-06-10T03:16:27;27.00;47.70
51815;DHT22;37874;53.158;6.766;2023-06-10T03:18:53;27.10;47.20
51815;DHT22;37874;53.158;6.766;2023-06-10T03:21:18;27.00;47.10
51815;DHT22;37874;53.158;6.766;2023-06-10T03:23:45;27.00;47.00
51815;DHT22;37874;53.158;6.766;2023-06-10T03:26:11;27.00;47.10
51815;DHT22;37874;53.158;6.766;2023-06-10T03:28:37;27.00;47.10
51815;DHT22;37874;53.158;6.766;2023-06-10T03:31:03;27.00;47.00
51815;DHT22;37874;53.158;6.766;2023-06-10T03:33:29;27.00;47.00
51815;DHT22;37874;53.158;6.766;2023-06-10T03:35:55;27.00;47.10
51815;DHT22;37874;53.158;6.766;2023-06-10T03:38:23;27.00;47.00
51815;DHT22;37874;53.158;6.766;2023-06-10T03:40:49;27.10;47.10
51815;DHT22;37874;53.158;6.766;2023-06-10T03:43:15;27.00;47.00
51815;DHT22;37874;53.158;6.766;2023-06-10T03:45:40;27.00;46.90
51815;DHT22;37874;53.158;6.766;2023-06-10T03:48:06;27.00;46.90
51815;DHT22;37874;53.158;6.766;2023-06-10T03:50:34;27.00;46.90
51815;DHT22;37874;53.158;6.766;2023-06-10T03:53:00;27.10;46.90
51815;DHT22;37874;53.158;6.766;2023-06-10T03:55:25;27.00;46.90
51815;DHT22;37874;53.158;6.766;2023-06-10T03:57:51;27.00;46.90
51815;DHT22;37874;53.158;6.766;2023-06-10T04:00:17;27.00;46.80
51815;DHT22;37874;53.158;6.766;2023-06-10T04:02:43;27.00;46.80
51815;DHT22;37874;53.158;6.766;2023-06-10T04:05:13;27.00;46.70
51815;DHT22;37874;53.158;6.766;2023-06-10T04:07:39;27.00;46.70
51815;DHT22;37874;53.158;6.766;2023-06-10T04:10:10;27.10;46.70
51815;DHT22;37874;53.158;6.766;2023-06-10T04:12:37;27.10;46.70
51815;DHT22;37874;53.158;6.766;2023-06-10T04:15:03;27.10;46.60
51815;DHT22;37874;53.158;6.766;2023-06-10T04:17:29;27.10;46.60
51815;DHT22;37874;53.158;6.766;2023-06-10T04:19:55;27.00;46.50
51815;DHT22;37874;53.158;6.766;2023-06-10T04:22:21;27.10;46.60
51815;DHT22;37874;53.158;6.766;2023-06-10T04:24:48;27.10;46.60
51815;DHT22;37874;53.158;6.766;2023-06-10T04:27:14;27.00;46.50
51815;DHT22;37874;53.158;6.766;2023-06-10T04:29:40;27.00;46.40
51815;DHT22;37874;53.158;6.766;2023-06-10T04:32:06;27.10;46.40
51815;DHT22;37874;53.158;6.766;2023-06-10T04:34:33;27.10;46.40
51815;DHT22;37874;53.158;6.766;2023-06-10T04:36:59;27.10;46.40
51815;DHT22;37874;53.158;6.766;2023-06-10T04:39:24;27.10;46.40
51815;DHT22;37874;53.158;6.766;2023-06-10T04:41:50;27.10;46.30
51815;DHT22;37874;53.158;6.766;2023-06-10T04:44:16;27.10;46.30
51815;DHT22;37874;53.158;6.766;2023-06-10T04:46:41;27.10;46.30
51815;DHT22;37874;53.158;6.766;2023-06-10T04:49:07;27.10;46.30
51815;DHT22;37874;53.158;6.766;2023-06-10T04:51:33;27.10;46.30
51815;DHT22;37874;53.158;6.766;2023-06-10T04:53:59;27.10;46.20
51815;DHT22;37874;53.158;6.766;2023-06-10T04:56:29;27.10;46.20
51815;DHT22;37874;53.158;6.766;2023-06-10T04:58:56;27.10;46.20
51815;DHT22;37874;53.158;6.766;2023-06-10T05:01:22;27.10;46.20
51815;DHT22;37874;53.158;6.766;2023-06-10T05:03:48;27.10;46.10
51815;DHT22;37874;53.158;6.766;2023-06-10T05:06:13;27.10;46.10
51815;DHT22;37874;53.158;6.766;2023-06-10T05:08:39;27.20;46.20
51815;DHT22;37874;53.158;6.766;2023-06-10T05:11:04;27.10;46.10
51815;DHT22;37874;53.158;6.766;2023-06-10T05:13:30;27.10;46.10
51815;DHT22;37874;53.158;6.766;2023-06-10T05:15:55;27.10;46.00
51815;DHT22;37874;53.158;6.766;2023-06-10T05:18:21;27.10;46.00
51815;DHT22;37874;53.158;6.766;2023-06-10T05:20:47;27.10;46.00
51815;DHT22;37874;53.158;6.766;2023-06-10T05:23:12;27.20;46.10
51815;DHT22;37874;53.158;6.766;2023-06-10T05:25:38;27.20;46.10
51815;DHT22;37874;53.158;6.766;2023-06-10T05:28:03;27.20;46.00
51815;DHT22;37874;53.158;6.766;2023-06-10T05:30:29;27.20;46.00
51815;DHT22;37874;53.158;6.766;2023-06-10T05:32:55;27.20;46.00
51815;DHT22;37874;53.158;6.766;2023-06-10T05:35:21;27.20;46.00
51815;DHT22;37874;53.158;6.766;2023-06-10T05:37:47;27.20;46.00
51815;DHT22;37874;53.158;6.766;2023-06-10T05:40:13;27.20;45.90
51815;DHT22;37874;53.158;6.766;2023-06-10T05:42:39;27.20;45.90
51815;DHT22;37874;53.158;6.766;2023-06-10T05:45:05;27.20;45.90
51815;DHT22;37874;53.158;6.766;2023-06-10T05:47:32;27.20;45.80
51815;DHT22;37874;53.158;6.766;2023-06-10T05:49:57;27.20;45.80
51815;DHT22;37874;53.158;6.766;2023-06-10T05:52:23;27.20;45.80
51815;DHT22;37874;53.158;6.766;2023-06-10T05:54:50;27.20;45.80
51815;DHT22;37874;53.158;6.766;2023-06-10T05:57:15;27.20;45.80
51815;DHT22;37874;53.158;6.766;2023-06-10T05:59:41;27.20;45.80
51815;DHT22;37874;53.158;6.766;2023-06-10T06:02:06;27.20;45.80
51815;DHT22;37874;53.158;6.766;2023-06-10T06:04:33;27.20;45.80
51815;DHT22;37874;53.158;6.766;2023-06-10T06:06:59;27.20;45.70
51815;DHT22;37874;53.158;6.766;2023-06-10T06:09:24;27.20;45.70
51815;DHT22;37874;53.158;6.766;2023-06-10T06:11:50;27.30;45.80
51815;DHT22;37874;53.158;6.766;2023-06-10T06:14:15;27.30;45.70
51815;DHT22;37874;53.158;6.766;2023-06-10T06:16:41;27.30;45.70
51815;DHT22;37874;53.158;6.766;2023-06-10T06:19:07;27.30;45.70
51815;DHT22;37874;53.158;6.766;2023-06-10T06:21:32;27.30;45.70
51815;DHT22;37874;53.158;6.766;2023-06-10T06:23:59;27.30;45.60
51815;DHT22;37874;53.158;6.766;2023-06-10T06:26:24;27.30;45.60
51815;DHT22;37874;53.158;6.766;2023-06-10T06:28:50;27.30;45.60
51815;DHT22;37874;53.158;6.766;2023-06-10T06:31:17;27.30;45.60
51815;DHT22;37874;53.158;6.766;2023-06-10T06:33:43;27.30;45.60
51815;DHT22;37874;53.158;6.766;2023-06-10T06:36:08;27.30;45.50
51815;DHT22;37874;53.158;6.766;2023-06-10T06:38:34;27.30;45.50
51815;DHT22;37874;53.158;6.766;2023-06-10T06:40:59;27.30;45.50
51815;DHT22;37874;53.158;6.766;2023-06-10T06:43:29;27.30;45.50
51815;DHT22;37874;53.158;6.766;2023-06-10T06:45:56;27.30;45.40
51815;DHT22;37874;53.158;6.766;2023-06-10T06:48:22;27.30;45.40
51815;DHT22;37874;53.158;6.766;2023-06-10T06:50:48;27.30;45.40
51815;DHT22;37874;53.158;6.766;2023-06-10T06:53:14;27.30;45.40
51815;DHT22;37874;53.158;6.766;2023-06-10T06:55:40;27.30;45.40
51815;DHT22;37874;53.158;6.766;2023-06-10T06:58:05;27.30;45.30
51815;DHT22;37874;53.158;6.766;2023-06-10T07:00:31;27.30;45.30
51815;DHT22;37874;53.158;6.766;2023-06-10T07:02:58;27.40;45.30
51815;DHT22;37874;53.158;6.766;2023-06-10T07:05:24;27.30;45.30
51815;DHT22;37874;53.158;6.766;2023-06-10T07:07:53;27.30;45.30
51815;DHT22;37874;53.158;6.766;2023-06-10T07:10:24;27.30;45.20
51815;DHT22;37874;53.158;6.766;2023-06-10T07:12:50;27.30;45.30
51815;DHT22;37874;53.158;6.766;2023-06-10T07:15:16;27.30;45.20
51815;DHT22;37874;53.158;6.766;2023-06-10T07:17:42;27.30;45.20
51815;DHT22;37874;53.158;6.766;2023-06-10T07:20:07;27.30;45.20
51815;DHT22;37874;53.158;6.766;2023-06-10T07:22:33;27.30;45.20
51815;DHT22;37874;53.158;6.766;2023-06-10T07:24:59;27.40;45.20
51815;DHT22;37874;53.158;6.766;2023-06-10T07:27:24;27.30;45.10
51815;DHT22;37874;53.158;6.766;2023-06-10T07:29:51;27.40;45.20
51815;DHT22;37874;53.158;6.766;2023-06-10T07:32:17;27.40;45.20
51815;DHT22;37874;53.158;6.766;2023-06-10T07:34:42;27.40;45.10
51815;DHT22;37874;53.158;6.766;2023-06-10T07:37:08;27.40;45.10
51815;DHT22;37874;53.158;6.766;2023-06-10T07:39:34;27.40;45.10
51815;DHT22;37874;53.158;6.766;2023-06-10T07:42:00;27.40;45.00
51815;DHT22;37874;53.158;6.766;2023-06-10T07:44:26;27.40;45.00
51815;DHT22;37874;53.158;6.766;2023-06-10T07:46:51;27.40;45.10
51815;DHT22;37874;53.158;6.766;2023-06-10T07:49:17;27.40;45.00
51815;DHT22;37874;53.158;6.766;2023-06-10T07:51:42;27.50;45.00
51815;DHT22;37874;53.158;6.766;2023-06-10T07:54:08;27.40;44.90
51815;DHT22;37874;53.158;6.766;2023-06-10T07:56:34;27.40;44.90
51815;DHT22;37874;53.158;6.766;2023-06-10T07:58:59;27.40;44.90
51815;DHT22;37874;53.158;6.766;2023-06-10T08:01:25;27.50;45.00
51815;DHT22;37874;53.158;6.766;2023-06-10T08:03:51;27.50;44.90
51815;DHT22;37874;53.158;6.766;2023-06-10T08:06:17;27.50;44.90
51815;DHT22;37874;53.158;6.766;2023-06-10T08:08:43;27.50;44.90
51815;DHT22;37874;53.158;6.766;2023-06-10T08:11:11;27.50;44.90
51815;DHT22;37874;53.158;6.766;2023-06-10T08:13:36;27.50;44.80
51815;DHT22;37874;53.158;6.766;2023-06-10T08:16:02;27.40;44.70
51815;DHT22;37874;53.158;6.766;2023-06-10T08:18:28;27.50;44.80
51815;DHT22;37874;53.158;6.766;2023-06-10T08:20:54;27.50;44.70
51815;DHT22;37874;53.158;6.766;2023-06-10T08:23:20;27.50;44.70
51815;DHT22;37874;53.158;6.766;2023-06-10T08:25:46;27.50;44.70
51815;DHT22;37874;53.158;6.766;2023-06-10T08:28:11;27.40;44.60
51815;DHT22;37874;53.158;6.766;2023-06-10T08:30:37;27.40;45.30
51815;DHT22;37874;53.158;6.766;2023-06-10T08:33:03;27.40;44.70
51815;DHT22;37874;53.158;6.766;2023-06-10T08:35:28;27.40;44.70
51815;DHT22;37874;53.158;6.766;2023-06-10T08:37:54;27.40;44.60
51815;DHT22;37874;53.158;6.766;2023-06-10T08:40:20;27.40;44.60
51815;DHT22;37874;53.158;6.766;2023-06-10T08:42:49;27.40;44.60
51815;DHT22;37874;53.158;6.766;2023-06-10T08:45:18;27.30;44.50
51815;DHT22;37874;53.158;6.766;2023-06-10T08:47:45;27.30;44.40
51815;DHT22;37874;53.158;6.766;2023-06-10T08:50:11;27.40;44.50
51815;DHT22;37874;53.158;6.766;2023-06-10T08:52:38;27.30;44.40
51815;DHT22;37874;53.158;6.766;2023-06-10T08:55:18;27.30;44.40
51815;DHT22;37874;53.158;6.766;2023-06-10T08:57:48;27.40;44.50
51815;DHT22;37874;53.158;6.766;2023-06-10T09:00:15;27.30;44.40
51815;DHT22;37874;53.158;6.766;2023-06-10T09:02:43;27.30;44.30
51815;DHT22;37874;53.158;6.766;2023-06-10T09:05:09;27.30;44.40
51815;DHT22;37874;53.158;6.766;2023-06-10T09:07:35;27.30;44.40
51815;DHT22;37874;53.158;6.766;2023-06-10T09:10:02;27.40;44.40
51815;DHT22;37874;53.158;6.766;2023-06-10T09:12:33;27.40;44.40
51815;DHT22;37874;53.158;6.766;2023-06-10T09:14:59;27.40;44.40
51815;DHT22;37874;53.158;6.766;2023-06-10T09:17:25;27.40;44.40
51815;DHT22;37874;53.158;6.766;2023-06-10T09:19:52;27.40;44.40
51815;DHT22;37874;53.158;6.766;2023-06-10T09:22:23;27.40;44.90
51815;DHT22;37874;53.158;6.766;2023-06-10T09:24:49;27.40;44.20
51815;DHT22;37874;53.158;6.766;2023-06-10T09:27:15;27.50;44.30
51815;DHT22;37874;53.158;6.766;2023-06-10T09:29:52;27.50;44.30
51815;DHT22;37874;53.158;6.766;2023-06-10T09:32:19;27.50;44.20
51815;DHT22;37874;53.158;6.766;2023-06-10T09:34:46;27.50;44.10
51815;DHT22;37874;53.158;6.766;2023-06-10T09:37:11;27.50;44.10
51815;DHT22;37874;53.158;6.766;2023-06-10T09:39:39;27.50;44.00
51815;DHT22;37874;53.158;6.766;2023-06-10T09:42:18;27.50;43.90
51815;DHT22;37874;53.158;6.766;2023-06-10T09:44:51;27.50;43.90
51815;DHT22;37874;53.158;6.766;2023-06-10T09:47:23;27.60;43.90
51815;DHT22;37874;53.158;6.766;2023-06-10T09:49:49;27.60;43.80
51815;DHT22;37874;53.158;6.766;2023-06-10T09:52:25;27.60;43.80
51815;DHT22;37874;53.158;6.766;2023-06-10T09:54:52;27.60;43.70
51815;DHT22;37874;53.158;6.766;2023-06-10T09:57:18;27.70;43.80
51815;DHT22;37874;53.158;6.766;2023-06-10T09:59:45;27.70;43.70
51815;DHT22;37874;53.158;6.766;2023-06-10T10:02:15;27.70;43.60
51815;DHT22;37874;53.158;6.766;2023-06-10T10:04:41;27.70;43.70
51815;DHT22;37874;53.158;6.766;2023-06-10T10:07:07;27.60;43.50
51815;DHT22;37874;53.158;6.766;2023-06-10T10:09:35;27.80;43.60
51815;DHT22;37874;53.158;6.766;2023-06-10T10:12:02;27.80;43.60
51815;DHT22;37874;53.158;6.766;2023-06-10T10:14:32;27.70;43.50
51815;DHT22;37874;53.158;6.766;2023-06-10T10:17:00;27.80;43.60
51815;DHT22;37874;53.158;6.766;2023-06-10T10:19:28;27.80;43.60
51815;DHT22;37874;53.158;6.766;2023-06-10T10:22:01;27.80;43.60
51815;DHT22;37874;53.158;6.766;2023-06-10T10:24:34;27.80;43.50
51815;DHT22;37874;53.158;6.766;2023-06-10T10:27:05;27.90;43.50
51815;DHT22;37874;53.158;6.766;2023-06-10T10:29:39;27.90;43.50
51815;DHT22;37874;53.158;6.766;2023-06-10T10:32:06;27.90;43.50
51815;DHT22;37874;53.158;6.766;2023-06-10T10:37:10;28.00;43.50
51815;DHT22;37874;53.158;6.766;2023-06-10T10:39:36;28.00;43.40
51815;DHT22;37874;53.158;6.766;2023-06-10T10:42:03;28.00;43.40
51815;DHT22;37874;53.158;6.766;2023-06-10T10:44:30;28.00;43.40
51815;DHT22;37874;53.158;6.766;2023-06-10T10:46:56;28.00;43.30
51815;DHT22;37874;53.158;6.766;2023-06-10T10:49:22;28.00;43.30
51815;DHT22;37874;53.158;6.766;2023-06-10T10:52:00;28.10;43.30
51815;DHT22;37874;53.158;6.766;2023-06-10T10:54:34;28.10;43.30
51815;DHT22;37874;53.158;6.766;2023-06-10T10:57:13;28.10;43.20
51815;DHT22;37874;53.158;6.766;2023-06-10T11:02:42;28.20;43.20
51815;DHT22;37874;53.158;6.766;2023-06-10T11:05:16;28.20;43.10
51815;DHT22;37874;53.158;6.766;2023-06-10T11:07:52;28.20;43.00
51815;DHT22;37874;53.158;6.766;2023-06-10T11:10:32;28.30;43.10
51815;DHT22;37874;53.158;6.766;2023-06-10T11:12:58;28.30;43.00
51815;DHT22;37874;53.158;6.766;2023-06-10T11:15:28;28.30;42.90
51815;DHT22;37874;53.158;6.766;2023-06-10T11:18:12;28.40;43.00
51815;DHT22;37874;53.158;6.766;2023-06-10T11:23:44;28.40;42.80
51815;DHT22;37874;53.158;6.766;2023-06-10T11:28:40;28.40;42.70
51815;DHT22;37874;53.158;6.766;2023-06-10T11:31:06;28.40;42.60
51815;DHT22;37874;53.158;6.766;2023-06-10T11:33:32;28.40;42.60
51815;DHT22;37874;53.158;6.766;2023-06-10T11:35:58;28.50;42.60
51815;DHT22;37874;53.158;6.766;2023-06-10T11:38:24;28.50;42.40
51815;DHT22;37874;53.158;6.766;2023-06-10T11:40:51;28.50;42.40
51815;DHT22;37874;53.158;6.766;2023-06-10T11:43:17;28.50;42.20
51815;DHT22;37874;53.158;6.766;2023-06-10T11:45:43;28.50;42.20
51815;DHT22;37874;53.158;6.766;2023-06-10T11:48:09;28.60;42.20
51815;DHT22;37874;53.158;6.766;2023-06-10T11:50:36;28.50;42.10
51815;DHT22;37874;53.158;6.766;2023-06-10T11:53:02;28.60;42.10
51815;DHT22;37874;53.158;6.766;2023-06-10T11:55:45;28.60;42.10
51815;DHT22;37874;53.158;6.766;2023-06-10T11:58:21;28.60;41.90
51815;DHT22;37874;53.158;6.766;2023-06-10T12:00:52;28.70;41.80
51815;DHT22;37874;53.158;6.766;2023-06-10T12:03:19;28.70;41.70
51815;DHT22;37874;53.158;6.766;2023-06-10T12:05:59;28.70;41.60
51815;DHT22;37874;53.158;6.766;2023-06-10T12:08:26;28.80;41.40
51815;DHT22;37874;53.158;6.766;2023-06-10T12:10:54;28.80;41.30
51815;DHT22;37874;53.158;6.766;2023-06-10T12:13:21;28.90;41.20
51815;DHT22;37874;53.158;6.766;2023-06-10T12:15:47;28.90;41.00
51815;DHT22;37874;53.158;6.766;2023-06-10T12:18:21;29.00;40.90
51815;DHT22;37874;53.158;6.766;2023-06-10T12:20:47;29.00;40.70
51815;DHT22;37874;53.158;6.766;2023-06-10T12:23:14;29.00;40.50
51815;DHT22;37874;53.158;6.766;2023-06-10T12:25:52;29.10;40.40
51815;DHT22;37874;53.158;6.766;2023-06-10T12:28:22;29.30;40.20
51815;DHT22;37874;53.158;6.766;2023-06-10T12:30:48;29.40;39.90
51815;DHT22;37874;53.158;6.766;2023-06-10T12:33:20;29.60;39.50
51815;DHT22;37874;53.158;6.766;2023-06-10T12:35:51;30.00;39.10
51815;DHT22;37874;53.158;6.766;2023-06-10T12:38:24;30.30;38.40
51815;DHT22;37874;53.158;6.766;2023-06-10T12:40:53;30.60;38.00
51815;DHT22;37874;53.158;6.766;2023-06-10T12:43:22;30.80;37.40
51815;DHT22;37874;53.158;6.766;2023-06-10T12:45:49;31.00;37.00
51815;DHT22;37874;53.158;6.766;2023-06-10T12:48:19;31.20;36.60
51815;DHT22;37874;53.158;6.766;2023-06-10T12:50:54;31.40;36.30
51815;DHT22;37874;53.158;6.766;2023-06-10T12:53:20;31.60;36.00
51815;DHT22;37874;53.158;6.766;2023-06-10T12:55:46;31.70;35.80
51815;DHT22;37874;53.158;6.766;2023-06-10T12:58:13;31.80;35.50
51815;DHT22;37874;53.158;6.766;2023-06-10T13:00:39;31.90;35.40
51815;DHT22;37874;53.158;6.766;2023-06-10T13:03:05;32.00;35.30
51815;DHT22;37874;53.158;6.766;2023-06-10T13:05:32;32.10;35.20
51815;DHT22;37874;53.158;6.766;2023-06-10T13:07:59;32.20;35.00
51815;DHT22;37874;53.158;6.766;2023-06-10T13:10:24;32.30;34.90
51815;DHT22;37874;53.158;6.766;2023-06-10T13:12:51;32.40;34.90
51815;DHT22;37874;53.158;6.766;2023-06-10T13:15:17;32.40;34.80
51815;DHT22;37874;53.158;6.766;2023-06-10T13:17:44;32.50;34.70
51815;DHT22;37874;53.158;6.766;2023-06-10T13:20:11;32.60;34.70
51815;DHT22;37874;53.158;6.766;2023-06-10T13:22:36;32.60;34.60
51815;DHT22;37874;53.158;6.766;2023-06-10T13:25:03;32.70;34.50
51815;DHT22;37874;53.158;6.766;2023-06-10T13:27:30;32.80;34.50
51815;DHT22;37874;53.158;6.766;2023-06-10T13:29:55;32.80;34.50
51815;DHT22;37874;53.158;6.766;2023-06-10T13:32:21;32.80;34.40
51815;DHT22;37874;53.158;6.766;2023-06-10T13:34:46;32.90;34.40
51815;DHT22;37874;53.158;6.766;2023-06-10T13:37:12;32.90;34.30
51815;DHT22;37874;53.158;6.766;2023-06-10T13:39:38;32.90;34.20
51815;DHT22;37874;53.158;6.766;2023-06-10T13:42:05;33.00;34.10
51815;DHT22;37874;53.158;6.766;2023-06-10T13:44:31;33.10;34.00
51815;DHT22;37874;53.158;6.766;2023-06-10T13:46:59;33.00;33.80
51815;DHT22;37874;53.158;6.766;2023-06-10T13:49:25;33.10;33.80
51815;DHT22;37874;53.158;6.766;2023-06-10T13:51:50;33.10;33.70
51815;DHT22;37874;53.158;6.766;2023-06-10T13:54:16;33.20;33.70
51815;DHT22;37874;53.158;6.766;2023-06-10T13:56:41;33.20;33.60
51815;DHT22;37874;53.158;6.766;2023-06-10T13:59:07;33.30;33.70
51815;DHT22;37874;53.158;6.766;2023-06-10T14:01:33;33.30;33.60
51815;DHT22;37874;53.158;6.766;2023-06-10T14:03:59;33.30;33.60
51815;DHT22;37874;53.158;6.766;2023-06-10T14:06:26;33.30;33.60
51815;DHT22;37874;53.158;6.766;2023-06-10T14:08:51;33.40;33.70
51815;DHT22;37874;53.158;6.766;2023-06-10T14:11:22;33.50;33.60
51815;DHT22;37874;53.158;6.766;2023-06-10T14:13:47;33.50;33.60
51815;DHT22;37874;53.158;6.766;2023-06-10T14:16:13;33.50;33.40
51815;DHT22;37874;53.158;6.766;2023-06-10T14:18:38;33.60;33.40
51815;DHT22;37874;53.158;6.766;2023-06-10T14:21:04;33.60;33.30
51815;DHT22;37874;53.158;6.766;2023-06-10T14:23:30;33.70;33.30
51815;DHT22;37874;53.158;6.766;2023-06-10T14:25:55;33.70;33.20
51815;DHT22;37874;53.158;6.766;2023-06-10T14:28:21;33.70;33.10
51815;DHT22;37874;53.158;6.766;2023-06-10T14:30:46;33.80;33.00
51815;DHT22;37874;53.158;6.766;2023-06-10T14:33:12;33.80;32.90
51815;DHT22;37874;53.158;6.766;2023-06-10T14:35:38;33.90;32.80
51815;DHT22;37874;53.158;6.766;2023-06-10T14:38:03;33.90;32.70
51815;DHT22;37874;53.158;6.766;2023-06-10T14:40:29;34.00;32.70
51815;DHT22;37874;53.158;6.766;2023-06-10T14:42:55;34.00;32.50
51815;DHT22;37874;53.158;6.766;2023-06-10T14:45:21;34.00;32.40
51815;DHT22;37874;53.158;6.766;2023-06-10T14:47:46;34.10;32.40
51815;DHT22;37874;53.158;6.766;2023-06-10T14:50:13;34.10;32.20
51815;DHT22;37874;53.158;6.766;2023-06-10T14:52:40;34.10;32.20
51815;DHT22;37874;53.158;6.766;2023-06-10T14:55:06;34.20;32.10
51815;DHT22;37874;53.158;6.766;2023-06-10T14:57:31;34.20;32.10
51815;DHT22;37874;53.158;6.766;2023-06-10T14:59:57;34.20;32.10
51815;DHT22;37874;53.158;6.766;2023-06-10T15:02:23;34.20;32.10
51815;DHT22;37874;53.158;6.766;2023-06-10T15:04:49;34.20;32.10
51815;DHT22;37874;53.158;6.766;2023-06-10T15:07:14;34.30;32.10
51815;DHT22;37874;53.158;6.766;2023-06-10T15:09:41;34.30;32.10
51815;DHT22;37874;53.158;6.766;2023-06-10T15:12:07;34.40;32.10
51815;DHT22;37874;53.158;6.766;2023-06-10T15:14:33;34.40;32.10
51815;DHT22;37874;53.158;6.766;2023-06-10T15:16:59;34.40;32.00
51815;DHT22;37874;53.158;6.766;2023-06-10T15:19:26;34.40;31.90
51815;DHT22;37874;53.158;6.766;2023-06-10T15:21:52;34.40;32.00
51815;DHT22;37874;53.158;6.766;2023-06-10T15:24:17;34.50;32.00
51815;DHT22;37874;53.158;6.766;2023-06-10T15:26:43;34.50;32.00
51815;DHT22;37874;53.158;6.766;2023-06-10T15:29:09;34.50;32.00
51815;DHT22;37874;53.158;6.766;2023-06-10T15:31:35;34.40;32.00
51815;DHT22;37874;53.158;6.766;2023-06-10T15:34:01;34.50;32.00
51815;DHT22;37874;53.158;6.766;2023-06-10T15:36:26;34.50;32.10
51815;DHT22;37874;53.158;6.766;2023-06-10T15:38:53;34.50;32.10